San Angelo, Texas
Current Conditions -  °F | °C
As of 1:51 PM on Thursday 30 Oct 2014 (Local Time) from KSJT Reporting Station
Clear Clear  
Wind Chill: 82°   Ceiling: Unl
Heat Index: 82°   Visibility: 10mi
Dew Point: 59°   Wind: 8mph
Humidity: 45%   Direction: 240°WSW
Pressure: 30.1"   Gusts: NA
Location:  31.46°N, 100.44°W
Report Text: KSJT 301851Z 24007KT 10SM CLR 28/15 A3010 RMK AO2 SLP172 T02780150
Loading
Personal Weather Stations






























Interactive Weather Map
Tropical Storm Tracking
New forecast layout! Learn more

10-Day Weather Forecast

Advertisements
Track Severe Weather on mobile